createdAt,value
2023-05-21T00:00:57.385Z,100627.16
2023-05-21T00:03:59.989Z,100624.13
2023-05-21T00:07:02.136Z,100637.34
2023-05-21T00:10:04.089Z,100614.28
2023-05-21T00:13:06.029Z,100622.03
2023-05-21T00:16:08.256Z,100615.38
2023-05-21T00:19:10.465Z,100609.09
2023-05-21T00:22:12.327Z,100626.28
2023-05-21T00:25:14.116Z,100627.75
2023-05-21T00:28:16.190Z,100620.34
2023-05-21T00:31:19.141Z,100625.25
2023-05-21T00:34:21.018Z,100625.66
2023-05-21T00:37:24.713Z,100644.41
2023-05-21T00:40:27.693Z,100632.31
2023-05-21T00:43:29.579Z,100628.38
2023-05-21T00:46:31.772Z,100633.75
2023-05-21T00:49:33.897Z,100622.28
2023-05-21T00:52:42.045Z,100617.88
2023-05-21T00:55:44.538Z,100626.06
2023-05-21T00:58:48.000Z,100629.38
2023-05-21T01:01:56.174Z,100619.63
2023-05-21T01:04:58.232Z,100600.09
2023-05-21T01:08:00.386Z,100592.75
2023-05-21T01:11:04.008Z,100614.13
2023-05-21T01:14:09.413Z,100607.88
2023-05-21T01:17:13.145Z,100593.88
2023-05-21T01:20:20.577Z,100599.91
2023-05-21T01:23:22.951Z,100615.00
2023-05-21T01:26:26.102Z,100601.84
2023-05-21T01:29:27.872Z,100593.66
2023-05-21T01:32:48.122Z,100587.16
2023-05-21T01:36:32.940Z,100602.34
2023-05-21T01:39:39.933Z,100603.53
2023-05-21T01:42:44.712Z,100595.19
2023-05-21T01:45:47.930Z,100598.84
2023-05-21T01:48:52.785Z,100598.91
2023-05-21T01:51:54.926Z,100545.31
2023-05-21T01:55:00.444Z,100594.75
2023-05-21T01:58:02.706Z,100583.56
2023-05-21T02:01:05.275Z,100582.25
2023-05-21T02:04:07.297Z,100588.28
2023-05-21T02:07:10.320Z,100590.34
2023-05-21T02:10:12.593Z,100585.09
2023-05-21T02:13:14.582Z,100590.69
2023-05-21T02:16:16.441Z,100602.31
2023-05-21T02:19:19.323Z,100584.94
2023-05-21T02:22:21.141Z,100589.38
2023-05-21T02:25:23.053Z,100544.25
2023-05-21T02:28:24.828Z,100581.63
2023-05-21T02:31:26.889Z,100579.09
2023-05-21T02:34:32.344Z,100565.50
2023-05-21T02:37:35.302Z,100571.00
2023-05-21T02:40:37.194Z,100577.06
2023-05-21T02:43:39.213Z,100577.94
2023-05-21T02:46:41.254Z,100564.25
2023-05-21T02:49:43.263Z,100580.06
2023-05-21T02:52:45.083Z,100560.44
2023-05-21T02:55:46.964Z,100574.03
2023-05-21T02:58:48.805Z,100578.38
2023-05-21T03:01:50.921Z,100590.28
2023-05-21T03:04:52.798Z,100579.78
2023-05-21T03:07:54.660Z,100591.38
2023-05-21T03:10:56.486Z,100583.47
2023-05-21T03:13:58.541Z,100595.72
2023-05-21T03:17:00.390Z,100597.97
2023-05-21T03:20:04.934Z,100573.03
2023-05-21T03:23:06.699Z,100578.22
2023-05-21T03:26:09.208Z,100581.97
2023-05-21T03:29:11.134Z,100574.56
2023-05-21T03:32:15.016Z,100566.66
2023-05-21T03:35:17.989Z,100576.03
2023-05-21T03:38:20.122Z,100566.13
2023-05-21T03:41:22.112Z,100569.31
2023-05-21T03:44:32.609Z,100573.50
2023-05-21T03:47:50.866Z,100571.63
2023-05-21T03:50:52.832Z,100559.16
2023-05-21T03:53:54.800Z,100569.38
2023-05-21T03:56:56.961Z,100554.44
2023-05-21T04:00:00.326Z,100569.81
2023-05-21T04:03:02.395Z,100567.09
2023-05-21T04:06:04.721Z,100569.56
2023-05-21T04:09:06.548Z,100558.88
2023-05-21T04:12:08.731Z,100557.13
2023-05-21T04:15:12.629Z,100569.00
2023-05-21T04:18:16.630Z,100567.94
2023-05-21T04:21:18.577Z,100561.53
2023-05-21T04:24:20.805Z,100571.81
2023-05-21T04:27:34.707Z,100566.31
2023-05-21T04:30:36.604Z,100577.72
2023-05-21T04:33:42.150Z,100563.34
2023-05-21T04:36:45.583Z,100432.81
2023-05-21T04:39:48.420Z,100559.13
2023-05-21T04:42:53.315Z,100560.84
2023-05-21T04:45:58.149Z,100568.53
2023-05-21T04:49:03.048Z,100560.34
2023-05-21T04:52:05.137Z,100565.00
2023-05-21T04:55:08.126Z,100575.19
2023-05-21T04:58:13.041Z,100568.09
2023-05-21T05:01:16.044Z,100569.22
2023-05-21T05:04:17.848Z,100571.72
2023-05-21T05:07:19.779Z,100571.94
2023-05-21T05:10:22.033Z,100565.72
2023-05-21T05:13:23.927Z,100560.63
2023-05-21T05:16:26.279Z,100563.97
2023-05-21T05:19:32.059Z,100565.59
2023-05-21T05:22:34.060Z,100556.25
2023-05-21T05:25:36.167Z,100544.81
2023-05-21T05:28:38.037Z,100562.44
2023-05-21T05:31:40.027Z,100551.03
2023-05-21T05:34:42.818Z,100504.03
2023-05-21T05:37:44.795Z,100547.16
2023-05-21T05:40:46.629Z,100545.63
2023-05-21T05:43:48.834Z,100557.69
2023-05-21T05:46:51.644Z,100522.13
2023-05-21T05:49:53.585Z,100541.00
2023-05-21T05:52:55.638Z,100541.53
2023-05-21T05:55:57.388Z,100537.28
2023-05-21T05:58:59.621Z,100546.72
2023-05-21T06:02:01.756Z,100532.31
2023-05-21T06:05:04.264Z,100533.31
2023-05-21T06:08:06.472Z,100530.25
2023-05-21T06:11:08.560Z,100511.78
2023-05-21T06:14:10.444Z,100507.34
2023-05-21T06:17:13.442Z,100519.69
2023-05-21T06:20:16.534Z,100514.34
2023-05-21T06:23:19.056Z,100448.69
2023-05-21T06:26:22.124Z,100501.75
2023-05-21T06:29:25.820Z,100514.59
2023-05-21T06:32:27.810Z,100468.34
2023-05-21T06:35:29.715Z,100510.22
2023-05-21T06:38:31.588Z,100504.31
2023-05-21T06:41:35.203Z,100511.47
2023-05-21T06:44:39.823Z,100503.72
2023-05-21T06:47:56.038Z,100488.69
2023-05-21T06:50:58.602Z,100472.97
2023-05-21T06:54:01.100Z,100481.81
2023-05-21T06:57:04.150Z,100482.56
2023-05-21T07:00:09.562Z,100479.53
2023-05-21T07:03:12.755Z,100446.44
2023-05-21T07:06:14.789Z,100483.81
2023-05-21T07:09:18.354Z,100464.56
2023-05-21T07:12:21.730Z,100449.16
2023-05-21T07:15:23.809Z,100470.56
2023-05-21T07:18:26.156Z,100466.41
2023-05-21T07:21:27.882Z,100469.06
2023-05-21T07:24:30.271Z,100431.13
2023-05-21T07:27:32.310Z,100418.19
2023-05-21T07:30:34.643Z,100446.94
2023-05-21T07:33:38.067Z,100452.47
2023-05-21T07:36:40.051Z,100458.06
2023-05-21T07:39:42.118Z,100447.19
2023-05-21T07:42:45.446Z,100442.34
2023-05-21T07:45:48.502Z,100434.47
2023-05-21T07:48:50.442Z,100398.19
2023-05-21T07:51:52.409Z,100438.72
2023-05-21T07:54:54.621Z,100418.28
2023-05-21T07:57:57.606Z,100424.00
2023-05-21T08:01:03.512Z,100416.16
2023-05-21T08:04:06.775Z,100428.09
2023-05-21T08:07:10.807Z,100399.72
2023-05-21T08:10:12.696Z,100428.22
2023-05-21T08:13:18.244Z,100407.53
2023-05-21T08:16:23.455Z,100414.34
2023-05-21T08:19:25.539Z,100415.72
2023-05-21T08:22:27.508Z,100414.41
2023-05-21T08:25:30.193Z,100416.63
2023-05-21T08:28:32.973Z,100408.31
2023-05-21T08:31:36.633Z,100395.91
2023-05-21T08:34:38.512Z,100405.66
2023-05-21T08:38:18.702Z,100411.94
2023-05-21T08:41:35.253Z,100405.31
2023-05-21T08:44:42.178Z,100413.75
2023-05-21T08:47:44.811Z,100411.75
2023-05-21T08:50:47.552Z,100394.78
2023-05-21T08:53:57.161Z,100378.50
2023-05-21T08:57:00.135Z,100404.63
2023-05-21T09:00:04.736Z,100406.16
2023-05-21T09:03:12.367Z,100413.66
2023-05-21T09:06:16.308Z,100402.25
2023-05-21T09:09:33.735Z,100404.78
2023-05-21T09:12:36.080Z,100407.28
2023-05-21T09:15:38.924Z,100399.97
2023-05-21T09:18:41.640Z,100402.72
2023-05-21T09:21:52.932Z,100398.69
2023-05-21T09:24:57.734Z,100381.63
2023-05-21T09:27:59.641Z,100390.34
2023-05-21T09:31:03.622Z,100388.19
2023-05-21T09:34:05.500Z,100389.19
2023-05-21T09:37:16.528Z,100382.56
2023-05-21T09:40:28.463Z,100372.78
2023-05-21T09:43:31.364Z,100376.16
2023-05-21T09:46:42.665Z,100383.53
2023-05-21T09:49:44.671Z,100377.13
2023-05-21T09:52:48.410Z,100378.34
2023-05-21T09:55:57.673Z,100311.22
2023-05-21T09:59:06.519Z,100362.22
2023-05-21T10:02:24.739Z,100366.69
2023-05-21T10:05:30.645Z,100375.00
2023-05-21T10:08:37.439Z,100331.75
2023-05-21T10:11:43.407Z,100354.38
2023-05-21T10:14:50.015Z,100357.59
2023-05-21T10:17:52.576Z,100342.97
2023-05-21T10:20:55.622Z,100297.97
2023-05-21T10:23:57.975Z,100340.22
2023-05-21T10:27:01.939Z,100345.09
2023-05-21T10:30:08.692Z,100351.56
2023-05-21T10:33:13.437Z,100340.28
2023-05-21T10:36:18.887Z,100330.75
2023-05-21T10:39:22.317Z,100327.69
2023-05-21T10:42:24.066Z,100330.72
2023-05-21T10:45:59.480Z,100324.81
2023-05-21T10:49:11.199Z,100312.38
2023-05-21T10:52:27.796Z,100319.53
2023-05-21T10:55:35.158Z,100317.38
2023-05-21T10:58:48.747Z,100320.63
2023-05-21T11:01:53.266Z,100318.84
2023-05-21T11:04:59.264Z,100308.78
2023-05-21T11:08:01.816Z,100315.72
2023-05-21T11:11:03.989Z,100310.78
2023-05-21T11:14:43.085Z,100273.56
2023-05-21T11:17:48.181Z,100304.09
2023-05-21T11:20:52.860Z,100310.56
2023-05-21T11:24:02.736Z,100231.69
2023-05-21T11:27:05.759Z,100296.81
2023-05-21T11:30:09.399Z,100272.88
2023-05-21T11:33:12.255Z,100293.75
2023-05-21T11:36:14.341Z,100289.53
2023-05-21T11:39:23.979Z,100292.56
2023-05-21T11:42:29.428Z,100286.31
2023-05-21T11:45:32.930Z,100275.44
2023-05-21T11:48:36.739Z,100289.84
2023-05-21T11:51:40.862Z,100268.47
2023-05-21T11:54:48.646Z,100270.50
2023-05-21T11:57:53.631Z,100268.13
2023-05-21T12:00:55.373Z,100274.25
2023-05-21T12:03:57.491Z,100268.91
2023-05-21T12:06:59.267Z,100256.69
2023-05-21T12:10:01.442Z,100243.16
2023-05-21T12:13:05.292Z,100252.53
2023-05-21T12:16:07.776Z,100248.97
2023-05-21T12:19:09.840Z,100257.44
2023-05-21T12:22:11.885Z,100256.94
2023-05-21T12:25:13.808Z,100248.13
2023-05-21T12:28:16.143Z,100245.75
2023-05-21T12:31:18.005Z,100247.25
2023-05-21T12:34:39.098Z,100247.44
2023-05-21T12:37:41.159Z,100237.22
2023-05-21T12:40:44.639Z,100233.44
2023-05-21T12:43:47.066Z,100240.19
2023-05-21T12:46:48.912Z,100239.66
2023-05-21T12:49:55.396Z,100188.66
2023-05-21T12:52:58.659Z,100227.69
2023-05-21T12:56:11.594Z,100232.38
2023-05-21T12:59:17.147Z,100232.56
2023-05-21T13:02:22.140Z,100236.75
2023-05-21T13:05:23.925Z,100190.06
2023-05-21T13:08:25.774Z,100223.06
2023-05-21T13:11:27.554Z,100219.81
2023-05-21T13:14:30.404Z,100216.03
2023-05-21T13:17:32.596Z,100214.47
2023-05-21T13:20:35.844Z,100217.78
2023-05-21T13:23:37.750Z,100203.88
2023-05-21T13:26:39.555Z,100200.13
2023-05-21T13:29:41.977Z,100196.97
2023-05-21T13:32:44.140Z,100190.88
2023-05-21T13:35:51.133Z,100207.19
2023-05-21T13:38:52.863Z,100209.56
2023-05-21T13:41:54.611Z,100200.13
2023-05-21T13:44:56.368Z,100207.00
2023-05-21T13:47:58.468Z,100199.50
2023-05-21T13:51:00.260Z,100207.88
2023-05-21T13:54:02.184Z,100197.69
2023-05-21T13:57:04.206Z,100162.81
2023-05-21T14:00:09.169Z,100187.47
2023-05-21T14:03:12.348Z,100111.91
2023-05-21T14:06:14.248Z,100145.53
2023-05-21T14:09:19.233Z,100187.31
2023-05-21T14:12:21.835Z,100186.06
2023-05-21T14:15:23.614Z,100184.25
2023-05-21T14:18:25.402Z,100186.53
2023-05-21T14:21:27.369Z,100183.34
2023-05-21T14:24:29.186Z,100181.22
2023-05-21T14:27:32.825Z,100185.69
2023-05-21T14:30:35.400Z,100184.72
2023-05-21T14:33:37.860Z,100186.94
2023-05-21T14:36:39.689Z,100177.31
2023-05-21T14:39:41.644Z,100182.84
2023-05-21T14:42:43.555Z,100174.41
2023-05-21T14:45:45.503Z,100173.31
2023-05-21T14:48:47.349Z,100177.28
2023-05-21T14:51:49.082Z,100169.00
2023-05-21T14:54:50.836Z,100157.78
2023-05-21T14:57:52.610Z,100171.03
2023-05-21T15:00:54.381Z,100174.72
2023-05-21T15:03:58.539Z,100170.94
2023-05-21T15:07:00.669Z,100161.44
2023-05-21T15:10:02.413Z,100157.41
2023-05-21T15:13:04.416Z,100168.53
2023-05-21T15:16:06.943Z,100178.53
2023-05-21T15:19:10.277Z,100170.25
2023-05-21T15:22:13.003Z,100170.09
2023-05-21T15:25:15.943Z,100180.63
2023-05-21T15:28:18.332Z,100165.88
2023-05-21T15:31:21.521Z,100154.81
2023-05-21T15:34:23.814Z,100058.63
2023-05-21T15:37:26.230Z,100152.41
2023-05-21T15:40:28.078Z,100170.91
2023-05-21T15:43:29.883Z,100128.47
2023-05-21T15:46:31.797Z,100159.09
2023-05-21T15:49:34.200Z,100168.47
2023-05-21T15:52:36.021Z,100176.88
2023-05-21T15:55:38.037Z,100171.47
2023-05-21T15:58:40.121Z,100159.97
2023-05-21T16:01:42.383Z,100169.44
2023-05-21T16:04:44.338Z,100146.97
2023-05-21T16:07:46.359Z,100165.16
2023-05-21T16:10:48.144Z,100146.00
2023-05-21T16:13:50.536Z,100184.59
2023-05-21T16:16:52.456Z,100182.94
2023-05-21T16:19:54.351Z,100165.19
2023-05-21T16:22:56.097Z,100176.56
2023-05-21T16:25:57.935Z,100176.31
2023-05-21T16:29:02.285Z,100168.66
2023-05-21T16:32:04.645Z,100174.31
2023-05-21T16:35:07.093Z,100167.81
2023-05-21T16:38:08.837Z,100163.13
2023-05-21T16:41:10.743Z,100175.75
2023-05-21T16:44:12.650Z,100179.97
2023-05-21T16:47:14.452Z,100169.47
2023-05-21T16:50:16.855Z,100175.69
2023-05-21T16:53:18.836Z,100176.25
2023-05-21T16:56:21.570Z,100176.22
2023-05-21T16:59:23.474Z,100175.78
2023-05-21T17:02:25.665Z,100170.50
2023-05-21T17:05:27.715Z,100168.19
2023-05-21T17:08:29.642Z,100178.13
2023-05-21T17:11:31.583Z,100148.09
2023-05-21T17:14:35.328Z,100178.63
2023-05-21T17:17:38.203Z,100139.38
2023-05-21T17:20:40.140Z,100161.53
2023-05-21T17:23:42.929Z,100175.06
2023-05-21T17:26:44.809Z,100173.59
2023-05-21T17:29:46.632Z,100175.97
2023-05-21T17:32:48.480Z,100177.91
2023-05-21T17:35:50.445Z,100177.41
2023-05-21T17:38:52.307Z,100174.78
2023-05-21T17:41:55.708Z,100184.44
2023-05-21T17:44:57.424Z,100194.34
2023-05-21T17:48:00.540Z,100149.50
2023-05-21T17:51:03.275Z,100175.41
2023-05-21T17:54:05.807Z,100192.03
2023-05-21T17:57:07.622Z,100187.03
2023-05-21T18:00:10.343Z,100177.91
2023-05-21T18:03:15.150Z,100183.84
2023-05-21T18:06:17.162Z,100178.16
2023-05-21T18:09:19.082Z,100191.47
2023-05-21T18:12:21.512Z,100190.38
2023-05-21T18:15:23.436Z,100187.09
2023-05-21T18:18:25.553Z,100185.38
2023-05-21T18:21:27.412Z,100191.13
2023-05-21T18:24:29.287Z,100197.25
2023-05-21T18:27:31.002Z,100184.41
2023-05-21T18:30:32.812Z,100200.63
2023-05-21T18:33:34.694Z,100205.53
2023-05-21T18:36:38.976Z,100203.41
2023-05-21T18:39:40.881Z,100194.72
2023-05-21T18:42:42.713Z,100210.31
2023-05-21T18:45:45.428Z,100236.19
2023-05-21T18:48:48.770Z,100223.34
2023-05-21T18:51:50.616Z,100226.38
2023-05-21T18:54:52.560Z,100224.88
2023-05-21T18:57:55.704Z,100223.88
2023-05-21T19:00:57.532Z,100215.34
2023-05-21T19:03:59.418Z,100233.16
2023-05-21T19:07:02.800Z,100230.44
2023-05-21T19:10:05.158Z,100217.63
2023-05-21T19:13:07.112Z,100210.97
2023-05-21T19:16:11.186Z,100230.34
2023-05-21T19:19:13.448Z,100240.94
2023-05-21T19:22:15.461Z,100248.25
2023-05-21T20:59:23.706Z,100278.34
2023-05-21T21:02:25.531Z,100274.56
2023-05-21T21:05:28.353Z,100281.50
2023-05-21T21:08:30.101Z,100283.81
2023-05-21T21:11:31.953Z,100293.03
2023-05-21T21:14:34.160Z,100280.56
2023-05-21T21:17:35.926Z,100288.28
2023-05-21T21:20:38.176Z,100286.97
2023-05-21T21:23:40.272Z,100300.44
2023-05-21T21:26:42.101Z,100296.41
2023-05-21T21:29:45.725Z,100303.41
2023-05-21T21:32:49.533Z,100283.00
2023-05-21T21:35:51.635Z,100295.41
2023-05-21T21:38:53.412Z,100300.09
2023-05-21T21:41:55.538Z,100291.72
2023-05-21T21:44:57.391Z,100292.84
2023-05-21T21:47:59.371Z,100296.69
2023-05-21T21:51:01.206Z,100291.94
2023-05-21T21:54:02.985Z,100301.09
2023-05-21T21:57:04.900Z,100310.13
2023-05-21T22:00:15.962Z,100307.16
2023-05-21T22:03:18.041Z,100298.56
2023-05-21T22:06:19.807Z,100298.75
2023-05-21T22:09:22.758Z,100306.66
2023-05-21T22:12:24.589Z,100308.28
2023-05-21T22:15:28.779Z,100301.31
2023-05-21T22:18:39.639Z,100302.94
2023-05-21T22:21:43.307Z,100271.47
2023-05-21T22:24:45.070Z,100281.59
2023-05-21T22:27:46.913Z,100281.38
2023-05-21T22:30:48.703Z,100309.44
2023-05-21T22:33:50.679Z,100270.41
2023-05-21T22:36:52.453Z,100301.03
2023-05-21T22:39:54.315Z,100325.34
2023-05-21T22:42:56.495Z,100322.28
2023-05-21T22:45:58.352Z,100308.25
2023-05-21T22:49:00.250Z,100294.69
2023-05-21T22:52:09.521Z,100316.47
2023-05-21T22:55:11.658Z,100301.44
2023-05-21T22:58:13.601Z,100313.13
2023-05-21T23:01:16.193Z,100297.53
2023-05-21T23:04:18.754Z,100310.94
2023-05-21T23:07:21.285Z,100315.34
2023-05-21T23:10:23.037Z,100310.78
2023-05-21T23:13:24.743Z,100309.59
2023-05-21T23:16:26.659Z,100298.94
2023-05-21T23:19:29.528Z,100309.31
2023-05-21T23:22:31.761Z,100304.56
2023-05-21T23:25:34.943Z,100303.63
2023-05-21T23:28:37.332Z,100299.59
2023-05-21T23:31:39.164Z,100312.06
2023-05-21T23:34:42.037Z,100296.69
2023-05-21T23:37:43.982Z,100311.56
2023-05-21T23:40:45.970Z,100314.38
2023-05-21T23:43:47.698Z,100310.41
2023-05-21T23:46:50.095Z,100299.38
2023-05-21T23:49:52.432Z,100321.53
2023-05-21T23:52:54.366Z,100321.53
2023-05-21T23:55:56.164Z,100294.88
2023-05-21T23:58:57.962Z,100274.44
